createdAt,value
2018-05-08T00:00:06.126Z,56.50
2018-05-08T00:01:05.989Z,57.10
2018-05-08T00:02:08.686Z,56.70
2018-05-08T00:03:11.206Z,56.80
2018-05-08T00:04:06.449Z,56.90
2018-05-08T00:05:06.186Z,56.50
2018-05-08T00:06:05.898Z,56.60
2018-05-08T00:07:06.302Z,56.70
2018-05-08T00:08:10.645Z,56.50
2018-05-08T00:09:06.034Z,56.60
2018-05-08T00:10:06.857Z,56.60
2018-05-08T00:11:05.504Z,56.70
2018-05-08T00:12:11.075Z,56.70
2018-05-08T00:13:09.177Z,57.00
2018-05-08T00:14:06.293Z,57.00
2018-05-08T00:15:05.478Z,56.80
2018-05-08T00:16:09.070Z,57.10
2018-05-08T00:17:15.847Z,57.00
2018-05-08T00:18:11.384Z,56.90
2018-05-08T00:19:06.578Z,57.20
2018-05-08T00:20:11.191Z,57.20
2018-05-08T00:21:11.050Z,57.40
2018-05-08T00:22:06.637Z,57.40
2018-05-08T00:23:06.256Z,57.60
2018-05-08T00:24:08.483Z,57.80
2018-05-08T00:25:08.469Z,58.20
2018-05-08T00:26:05.909Z,58.30
2018-05-08T00:27:06.270Z,58.00
2018-05-08T00:28:06.085Z,58.40
2018-05-08T00:29:10.757Z,58.50
2018-05-08T00:30:08.591Z,59.00
2018-05-08T00:31:06.166Z,58.90
2018-05-08T00:32:06.534Z,59.10
2018-05-08T00:33:08.321Z,59.20
2018-05-08T00:34:05.985Z,59.20
2018-05-08T00:35:08.826Z,59.40
2018-05-08T00:36:06.355Z,59.40
2018-05-08T00:37:05.978Z,59.50
2018-05-08T00:38:10.826Z,59.80
2018-05-08T00:39:06.203Z,59.80
2018-05-08T00:40:05.982Z,59.70
2018-05-08T00:41:08.443Z,59.80
2018-05-08T00:42:06.272Z,59.80
2018-05-08T00:43:06.206Z,59.80
2018-05-08T00:44:09.413Z,59.90
2018-05-08T00:45:08.478Z,60.50
2018-05-08T00:46:06.254Z,60.40
2018-05-08T00:47:08.856Z,60.20
2018-05-08T00:48:09.287Z,60.00
2018-05-08T00:49:08.428Z,59.90
2018-05-08T00:50:11.176Z,59.70
2018-05-08T00:51:06.070Z,59.70
2018-05-08T00:52:05.598Z,59.80
2018-05-08T00:53:08.884Z,60.20
2018-05-08T00:54:09.360Z,60.00
2018-05-08T00:55:08.616Z,60.00
2018-05-08T00:56:06.178Z,59.90
2018-05-08T00:57:08.205Z,60.00
2018-05-08T00:58:10.747Z,59.90
2018-05-08T00:59:08.966Z,59.90
2018-05-08T01:00:05.458Z,60.00
2018-05-08T01:01:09.150Z,60.60
2018-05-08T01:02:05.711Z,60.60
2018-05-08T01:03:08.354Z,60.60
2018-05-08T01:04:05.954Z,60.60
2018-05-08T01:05:06.677Z,60.90
2018-05-08T01:06:16.560Z,60.80
2018-05-08T01:07:08.581Z,60.90
2018-05-08T01:08:06.295Z,60.90
2018-05-08T01:09:11.204Z,60.70
2018-05-08T01:10:05.516Z,60.70
2018-05-08T01:11:05.824Z,61.00
2018-05-08T01:12:06.514Z,61.20
2018-05-08T01:13:05.827Z,61.10
2018-05-08T01:14:08.350Z,61.60
2018-05-08T01:15:10.865Z,61.20
2018-05-08T01:16:08.838Z,61.20
2018-05-08T01:17:06.506Z,61.20
2018-05-08T01:18:06.248Z,61.10
2018-05-08T01:19:06.050Z,61.00
2018-05-08T01:20:06.702Z,61.00
2018-05-08T01:21:09.363Z,60.90
2018-05-08T01:22:05.828Z,60.90
2018-05-08T01:23:11.307Z,61.10
2018-05-08T01:24:10.796Z,61.10
2018-05-08T01:25:06.412Z,61.10
2018-05-08T01:26:08.450Z,61.10
2018-05-08T01:27:06.167Z,61.10
2018-05-08T01:28:05.619Z,61.30
2018-05-08T01:29:06.417Z,61.10
2018-05-08T01:30:06.043Z,61.30
2018-05-08T01:31:05.988Z,61.50
2018-05-08T01:32:06.000Z,61.60
2018-05-08T01:33:10.853Z,61.80
2018-05-08T01:34:06.203Z,61.60
2018-05-08T01:35:11.453Z,61.60
2018-05-08T01:36:05.975Z,61.60
2018-05-08T01:37:11.446Z,61.50
2018-05-08T01:38:10.280Z,61.50
2018-05-08T01:39:08.504Z,61.70
2018-05-08T01:40:06.542Z,61.70
2018-05-08T01:41:06.750Z,61.50
2018-05-08T01:42:11.258Z,62.10
2018-05-08T01:43:06.812Z,62.10
2018-05-08T01:44:11.672Z,62.10
2018-05-08T01:45:10.904Z,61.90
2018-05-08T01:46:11.288Z,61.90
2018-05-08T01:47:08.250Z,62.00
2018-05-08T01:48:06.001Z,62.00
2018-05-08T01:49:11.735Z,62.20
2018-05-08T01:50:10.908Z,62.30
2018-05-08T01:51:08.961Z,62.40
2018-05-08T01:52:06.950Z,62.50
2018-05-08T01:53:06.368Z,62.70
2018-05-08T01:54:06.318Z,62.30
2018-05-08T01:55:06.213Z,62.00
2018-05-08T01:56:11.298Z,62.20
2018-05-08T01:57:05.912Z,62.10
2018-05-08T01:58:06.294Z,62.20
2018-05-08T01:59:11.956Z,62.40
2018-05-08T02:00:06.010Z,62.40
2018-05-08T02:01:06.017Z,62.70
2018-05-08T02:02:10.616Z,62.70
2018-05-08T02:03:11.045Z,63.80
2018-05-08T02:04:06.163Z,63.40
2018-05-08T02:05:10.961Z,63.80
2018-05-08T02:06:06.423Z,63.50
2018-05-08T02:07:08.919Z,63.40
2018-05-08T02:08:05.839Z,63.40
2018-05-08T02:09:06.546Z,63.50
2018-05-08T02:10:08.712Z,64.00
2018-05-08T02:11:06.125Z,63.90
2018-05-08T02:12:05.778Z,64.20
2018-05-08T02:13:06.173Z,64.30
2018-05-08T02:14:06.078Z,64.30
2018-05-08T02:15:11.376Z,64.50
2018-05-08T02:16:05.648Z,64.90
2018-05-08T02:17:09.180Z,65.40
2018-05-08T02:18:05.810Z,65.40
2018-05-08T02:19:06.595Z,65.70
2018-05-08T02:20:06.072Z,66.10
2018-05-08T02:21:08.161Z,65.70
2018-05-08T02:22:08.917Z,65.70
2018-05-08T02:23:10.615Z,65.50
2018-05-08T02:24:05.887Z,65.50
2018-05-08T02:25:06.768Z,65.50
2018-05-08T02:26:11.475Z,66.20
2018-05-08T02:27:06.038Z,66.20
2018-05-08T02:28:06.269Z,65.70
2018-05-08T02:29:06.679Z,66.00
2018-05-08T02:30:06.351Z,66.30
2018-05-08T02:31:06.343Z,66.20
2018-05-08T02:32:05.498Z,66.20
2018-05-08T02:33:05.872Z,65.90
2018-05-08T02:34:10.455Z,66.10
2018-05-08T02:35:10.138Z,66.60
2018-05-08T02:36:06.463Z,66.50
2018-05-08T02:37:08.804Z,66.80
2018-05-08T02:38:06.930Z,66.70
2018-05-08T02:39:06.508Z,66.90
2018-05-08T02:40:08.175Z,66.60
2018-05-08T02:41:05.733Z,66.60
2018-05-08T02:42:06.860Z,66.90
2018-05-08T02:43:05.826Z,66.70
2018-05-08T02:44:05.582Z,66.90
2018-05-08T02:45:10.895Z,67.30
2018-05-08T02:46:06.020Z,67.20
2018-05-08T02:47:05.568Z,66.60
2018-05-08T02:48:06.250Z,67.10
2018-05-08T02:49:06.116Z,67.50
2018-05-08T02:50:08.950Z,67.50
2018-05-08T02:51:05.485Z,67.50
2018-05-08T02:52:10.955Z,67.70
2018-05-08T02:53:06.720Z,67.80
2018-05-08T02:54:05.963Z,67.70
2018-05-08T02:55:06.055Z,67.30
2018-05-08T02:56:05.819Z,67.30
2018-05-08T02:57:05.588Z,67.40
2018-05-08T02:58:06.135Z,67.80
2018-05-08T02:59:10.831Z,67.50
2018-05-08T03:00:06.625Z,67.50
2018-05-08T03:01:09.135Z,67.20
2018-05-08T03:02:08.160Z,67.10
2018-05-08T03:03:05.627Z,67.20
2018-05-08T03:04:05.943Z,66.80
2018-05-08T03:05:06.371Z,66.80
2018-05-08T03:06:05.763Z,66.70
2018-05-08T03:07:09.545Z,67.00
2018-05-08T03:08:08.893Z,66.70
2018-05-08T03:09:06.482Z,66.70
2018-05-08T03:10:05.904Z,67.20
2018-05-08T03:11:10.468Z,67.30
2018-05-08T03:12:05.779Z,67.60
2018-05-08T03:13:06.222Z,67.60
2018-05-08T03:14:11.157Z,67.60
2018-05-08T03:15:06.596Z,67.70
2018-05-08T03:16:11.358Z,67.40
2018-05-08T03:17:10.502Z,67.10
2018-05-08T03:18:13.909Z,67.10
2018-05-08T03:19:06.397Z,67.10
2018-05-08T03:20:05.648Z,66.90
2018-05-08T03:21:09.151Z,67.60
2018-05-08T03:22:10.694Z,67.60
2018-05-08T03:23:06.323Z,67.90
2018-05-08T03:24:05.963Z,68.30
2018-05-08T03:25:06.784Z,68.40
2018-05-08T03:26:06.574Z,68.30
2018-05-08T03:27:11.183Z,68.60
2018-05-08T03:28:09.016Z,68.40
2018-05-08T03:29:05.617Z,68.40
2018-05-08T03:30:05.688Z,68.10
2018-05-08T03:31:06.775Z,68.00
2018-05-08T03:32:05.921Z,67.90
2018-05-08T03:33:05.946Z,68.10
2018-05-08T03:34:10.558Z,69.00
2018-05-08T03:35:09.182Z,69.40
2018-05-08T03:36:10.771Z,69.20
2018-05-08T03:37:06.119Z,69.20
2018-05-08T03:38:06.348Z,69.40
2018-05-08T03:39:11.387Z,69.00
2018-05-08T03:40:06.582Z,69.00
2018-05-08T03:41:10.034Z,69.90
2018-05-08T03:42:05.604Z,69.90
2018-05-08T03:43:06.819Z,70.40
2018-05-08T03:44:07.086Z,70.40
2018-05-08T03:45:06.341Z,70.10
2018-05-08T03:46:05.969Z,70.10
2018-05-08T03:47:06.468Z,70.20
2018-05-08T03:48:08.935Z,69.90
2018-05-08T03:49:09.666Z,69.80
2018-05-08T03:50:08.181Z,69.80
2018-05-08T03:51:06.097Z,70.30
2018-05-08T03:52:11.496Z,70.50
2018-05-08T03:53:06.038Z,70.50
2018-05-08T03:54:08.226Z,70.60
2018-05-08T03:55:10.845Z,70.60
2018-05-08T03:56:06.383Z,71.00
2018-05-08T03:57:09.424Z,70.90
2018-05-08T03:58:06.107Z,70.90
2018-05-08T03:59:08.465Z,70.30
2018-05-08T04:00:11.201Z,70.10
2018-05-08T04:01:05.966Z,70.00
2018-05-08T04:02:10.119Z,70.30
2018-05-08T04:03:06.400Z,70.10
2018-05-08T04:04:05.705Z,70.30
2018-05-08T04:05:08.467Z,71.10
2018-05-08T04:06:05.921Z,71.10
2018-05-08T04:07:08.194Z,70.90
2018-05-08T04:08:06.297Z,70.90
2018-05-08T04:09:06.895Z,70.60
2018-05-08T04:10:06.217Z,70.30
2018-05-08T04:11:05.851Z,70.00
2018-05-08T04:12:09.847Z,70.90
2018-05-08T04:13:11.710Z,70.90
2018-05-08T04:14:06.481Z,70.90
2018-05-08T04:15:06.113Z,70.50
2018-05-08T04:16:06.324Z,70.90
2018-05-08T04:17:06.606Z,71.40
2018-05-08T04:18:05.780Z,71.50
2018-05-08T04:19:08.939Z,71.50
2018-05-08T04:20:09.753Z,71.30
2018-05-08T04:21:06.853Z,71.30
2018-05-08T04:22:05.760Z,71.20
2018-05-08T04:23:05.593Z,71.10
2018-05-08T04:24:06.431Z,70.90
2018-05-08T04:25:07.036Z,70.60
2018-05-08T04:26:07.545Z,70.00
2018-05-08T04:27:06.020Z,69.60
2018-05-08T04:28:05.660Z,69.40
2018-05-08T04:29:09.563Z,68.60
2018-05-08T04:30:09.802Z,68.20
2018-05-08T04:31:06.572Z,68.10
2018-05-08T04:32:11.203Z,67.80
2018-05-08T04:33:10.861Z,66.40
2018-05-08T04:34:09.102Z,65.40
2018-05-08T04:35:10.571Z,65.40
2018-05-08T04:36:10.590Z,64.90
2018-05-08T04:37:11.463Z,62.80
2018-05-08T04:38:05.962Z,62.70
2018-05-08T04:39:05.767Z,62.30
2018-05-08T04:40:06.416Z,61.60
2018-05-08T04:41:06.318Z,61.20
2018-05-08T04:42:08.982Z,59.90
2018-05-08T04:43:05.489Z,59.90
2018-05-08T04:44:11.469Z,59.40
2018-05-08T04:45:06.562Z,58.80
2018-05-08T04:46:06.269Z,58.10
2018-05-08T04:47:09.831Z,57.10
2018-05-08T04:48:11.230Z,56.60
2018-05-08T04:49:09.299Z,56.10
2018-05-08T04:50:06.221Z,56.10
2018-05-08T04:51:08.883Z,55.00
2018-05-08T04:52:09.061Z,54.50
2018-05-08T04:53:09.446Z,54.00
2018-05-08T04:54:07.485Z,54.00
2018-05-08T04:55:06.451Z,53.80
2018-05-08T04:56:06.873Z,53.50
2018-05-08T04:57:06.250Z,53.10
2018-05-08T04:58:11.420Z,52.10
2018-05-08T04:59:06.480Z,52.00
2018-05-08T05:00:06.383Z,51.40
2018-05-08T05:01:06.200Z,51.00
2018-05-08T05:02:08.473Z,50.20
2018-05-08T05:03:06.099Z,50.20
2018-05-08T05:04:10.618Z,49.90
2018-05-08T05:05:08.360Z,49.40
2018-05-08T05:06:05.926Z,49.40
2018-05-08T05:07:06.057Z,48.90
2018-05-08T05:08:08.420Z,48.40
2018-05-08T05:09:08.624Z,48.20
2018-05-08T05:10:07.635Z,48.30
2018-05-08T05:11:06.162Z,48.20
2018-05-08T05:12:09.405Z,47.40
2018-05-08T05:13:08.394Z,47.10
2018-05-08T05:14:11.028Z,46.60
2018-05-08T05:15:10.822Z,46.60
2018-05-08T05:16:05.796Z,46.40
2018-05-08T05:17:06.412Z,46.60
2018-05-08T05:18:06.327Z,46.10
2018-05-08T05:19:10.660Z,45.20
2018-05-08T05:20:08.789Z,45.10
2018-05-08T05:21:14.231Z,44.80
2018-05-08T05:22:10.980Z,43.80
2018-05-08T05:23:08.192Z,43.70
2018-05-08T05:24:21.252Z,43.10
2018-05-08T05:25:06.292Z,43.20
2018-05-08T05:26:10.689Z,42.80
2018-05-08T05:27:11.303Z,42.60
2018-05-08T05:28:11.047Z,41.70
2018-05-08T05:29:05.628Z,41.70
2018-05-08T05:30:06.645Z,41.30
2018-05-08T05:31:09.015Z,41.20
2018-05-08T05:32:10.710Z,41.20
2018-05-08T05:33:09.636Z,40.90
2018-05-08T05:34:06.077Z,40.80
2018-05-08T05:35:09.772Z,40.30
2018-05-08T05:36:06.161Z,40.30
2018-05-08T05:37:08.624Z,40.20
2018-05-08T05:38:08.749Z,40.20
2018-05-08T05:39:11.396Z,40.20
2018-05-08T05:40:06.482Z,39.80
2018-05-08T05:41:10.117Z,39.20
2018-05-08T05:42:05.999Z,39.20
2018-05-08T05:43:05.690Z,39.30
2018-05-08T05:44:10.991Z,39.10
2018-05-08T05:45:09.015Z,38.60
2018-05-08T05:46:05.503Z,38.60
2018-05-08T05:47:10.937Z,38.60
2018-05-08T05:48:06.643Z,38.70
2018-05-08T05:49:06.703Z,38.40
2018-05-08T05:50:05.790Z,37.90
2018-05-08T05:51:06.777Z,37.70
2018-05-08T05:52:06.601Z,37.60
2018-05-08T05:53:11.068Z,37.90
2018-05-08T05:54:06.074Z,37.80
2018-05-08T05:55:06.367Z,38.00
2018-05-08T05:56:06.015Z,37.80
2018-05-08T05:57:10.879Z,37.70
2018-05-08T05:58:09.071Z,37.50
2018-05-08T05:59:15.663Z,37.20
2018-05-08T06:00:08.627Z,37.10
2018-05-08T06:01:15.716Z,37.10
2018-05-08T06:02:06.187Z,37.10
2018-05-08T06:03:08.494Z,36.90
2018-05-08T06:04:11.125Z,37.00
2018-05-08T06:05:06.057Z,36.50
2018-05-08T06:06:06.287Z,36.60
2018-05-08T06:07:11.192Z,36.30
2018-05-08T06:08:06.221Z,36.30
2018-05-08T06:09:08.516Z,36.00
2018-05-08T06:10:06.021Z,35.80
2018-05-08T06:11:06.740Z,35.60
2018-05-08T06:12:08.396Z,35.80
2018-05-08T06:13:13.679Z,35.60
2018-05-08T06:14:11.242Z,35.60
2018-05-08T06:15:05.633Z,35.50
2018-05-08T06:16:08.839Z,35.00
2018-05-08T06:17:05.441Z,35.00
2018-05-08T06:18:08.427Z,34.60
2018-05-08T06:19:05.910Z,34.80
2018-05-08T06:20:06.031Z,35.10
2018-05-08T06:21:10.980Z,34.70
2018-05-08T06:22:06.421Z,34.60
2018-05-08T06:23:08.293Z,34.50
2018-05-08T06:24:06.140Z,34.50
2018-05-08T06:25:08.573Z,35.10
2018-05-08T06:26:11.211Z,35.10
2018-05-08T06:27:06.629Z,35.00
2018-05-08T06:28:10.780Z,34.60
2018-05-08T06:29:06.516Z,34.20
2018-05-08T06:30:06.559Z,34.60
2018-05-08T06:31:06.368Z,34.80
2018-05-08T06:32:06.072Z,34.60
2018-05-08T06:33:10.930Z,34.60
2018-05-08T06:34:11.382Z,34.80
2018-05-08T06:35:05.687Z,35.20
2018-05-08T06:36:08.522Z,34.60
2018-05-08T06:37:05.988Z,34.60
2018-05-08T06:38:08.181Z,34.50
2018-05-08T06:39:08.380Z,34.60
2018-05-08T06:40:08.973Z,34.70
2018-05-08T06:41:07.065Z,34.70
2018-05-08T06:42:07.402Z,34.70
2018-05-08T06:43:06.123Z,35.10
2018-05-08T06:44:06.152Z,34.90
2018-05-08T06:45:10.829Z,35.00
2018-05-08T06:46:09.372Z,35.00
2018-05-08T06:47:11.039Z,35.20
2018-05-08T06:48:11.362Z,35.60
2018-05-08T06:49:10.706Z,35.60
2018-05-08T06:50:11.161Z,35.30
2018-05-08T06:51:10.884Z,35.30
2018-05-08T06:52:06.498Z,35.80
2018-05-08T06:53:08.777Z,35.80
2018-05-08T06:54:11.322Z,35.80
2018-05-08T06:55:05.794Z,35.90
2018-05-08T06:56:06.582Z,35.60
2018-05-08T06:57:14.226Z,35.70
2018-05-08T06:58:10.912Z,35.90
2018-05-08T06:59:07.622Z,36.00
2018-05-08T07:00:05.986Z,36.00
2018-05-08T07:01:05.626Z,36.20
2018-05-08T07:02:06.534Z,36.10
2018-05-08T07:03:16.619Z,34.20
2018-05-08T07:04:06.520Z,34.20
2018-05-08T07:05:08.634Z,34.30
2018-05-08T07:06:06.170Z,34.40
2018-05-08T07:07:06.194Z,34.20
2018-05-08T07:08:06.303Z,34.00
2018-05-08T07:09:11.942Z,34.80
2018-05-08T07:10:12.044Z,34.90
2018-05-08T07:11:06.422Z,34.90
2018-05-08T07:12:11.262Z,35.00
2018-05-08T07:13:08.352Z,35.00
2018-05-08T07:14:07.004Z,34.90
2018-05-08T07:15:06.602Z,35.00
2018-05-08T07:16:11.692Z,34.90
2018-05-08T07:17:06.245Z,34.90
2018-05-08T07:18:05.454Z,34.80
2018-05-08T07:19:06.346Z,34.50
2018-05-08T07:20:06.224Z,35.00
2018-05-08T07:21:13.398Z,35.50
2018-05-08T07:22:05.937Z,35.60
2018-05-08T07:23:11.328Z,35.60
2018-05-08T07:24:06.147Z,35.50
2018-05-08T07:25:10.865Z,35.10
2018-05-08T07:26:06.180Z,35.10
2018-05-08T07:27:05.932Z,35.00
2018-05-08T07:28:06.162Z,35.80
2018-05-08T07:29:06.003Z,35.80
2018-05-08T07:30:06.261Z,35.00
2018-05-08T07:31:08.716Z,34.80
2018-05-08T07:32:06.689Z,34.80
2018-05-08T07:33:09.193Z,35.40
2018-05-08T07:34:11.002Z,35.80
2018-05-08T07:35:06.372Z,35.90
2018-05-08T07:36:06.358Z,36.00
2018-05-08T07:37:06.431Z,35.90
2018-05-08T07:38:05.648Z,35.30
2018-05-08T07:39:11.636Z,35.50
2018-05-08T07:40:11.288Z,35.40
2018-05-08T07:41:08.732Z,35.40
2018-05-08T07:42:06.486Z,35.40
2018-05-08T07:43:13.888Z,35.70
2018-05-08T07:44:09.169Z,35.50
2018-05-08T07:45:10.807Z,35.40
2018-05-08T07:46:09.197Z,35.40
2018-05-08T07:47:05.651Z,35.40
2018-05-08T07:48:08.857Z,35.10
2018-05-08T07:49:06.039Z,35.00
2018-05-08T07:50:06.473Z,35.20
2018-05-08T07:51:06.047Z,35.10
2018-05-08T07:52:11.487Z,35.00
2018-05-08T07:53:10.918Z,35.40
2018-05-08T07:54:06.880Z,34.80
2018-05-08T07:55:06.625Z,35.20
2018-05-08T07:56:11.266Z,34.70
2018-05-08T07:57:05.750Z,34.80
2018-05-08T07:58:10.668Z,34.70
2018-05-08T07:59:06.358Z,34.60
2018-05-08T08:00:05.965Z,35.00
2018-05-08T08:01:10.870Z,34.40
2018-05-08T08:02:06.009Z,34.20
2018-05-08T08:03:09.126Z,34.70
2018-05-08T08:04:06.202Z,34.70
2018-05-08T08:05:06.455Z,35.00
2018-05-08T08:06:10.684Z,35.10
2018-05-08T08:07:06.098Z,35.10
2018-05-08T08:08:08.204Z,35.20
2018-05-08T08:09:06.205Z,35.20
2018-05-08T08:10:08.352Z,35.30
2018-05-08T08:11:05.869Z,35.30
2018-05-08T08:12:06.834Z,35.60
2018-05-08T08:13:11.094Z,34.80
2018-05-08T08:14:11.642Z,34.00
2018-05-08T08:15:06.409Z,34.00
2018-05-08T08:16:06.565Z,33.90
2018-05-08T08:17:09.066Z,34.30
2018-05-08T08:18:10.692Z,34.30
2018-05-08T08:19:08.820Z,33.50
2018-05-08T08:20:08.978Z,33.40
2018-05-08T08:21:06.849Z,33.50
2018-05-08T08:22:08.942Z,33.20
2018-05-08T08:23:06.650Z,33.20
2018-05-08T08:24:09.040Z,33.00
2018-05-08T08:25:05.591Z,32.90
2018-05-08T08:26:06.050Z,32.50
2018-05-08T08:27:06.099Z,32.70
2018-05-08T08:28:06.080Z,33.20
2018-05-08T08:29:14.029Z,33.60
2018-05-08T08:30:08.016Z,33.70
2018-05-08T08:31:05.858Z,33.70
2018-05-08T08:32:09.067Z,32.60
2018-05-08T08:33:05.554Z,32.50
2018-05-08T08:34:06.298Z,32.60
2018-05-08T08:35:10.640Z,31.90
2018-05-08T08:36:07.539Z,32.00
2018-05-08T08:37:06.398Z,31.90
2018-05-08T08:38:08.665Z,31.20
2018-05-08T08:39:06.271Z,31.20
2018-05-08T08:40:11.065Z,30.10
2018-05-08T08:41:14.630Z,30.10
2018-05-08T08:42:06.397Z,30.00
2018-05-08T08:43:06.362Z,30.60
2018-05-08T08:44:14.101Z,30.30
2018-05-08T08:45:05.916Z,30.20
2018-05-08T08:46:05.781Z,29.50
2018-05-08T08:47:09.131Z,29.00
2018-05-08T08:48:10.771Z,29.50
2018-05-08T08:49:06.234Z,29.50
2018-05-08T08:50:06.001Z,29.90
2018-05-08T08:51:08.469Z,30.30
2018-05-08T08:52:11.022Z,30.40
2018-05-08T08:53:05.523Z,30.50
2018-05-08T08:54:10.977Z,30.40
2018-05-08T08:55:07.005Z,30.30
2018-05-08T08:56:05.985Z,28.50
2018-05-08T08:57:05.766Z,29.00
2018-05-08T08:58:06.868Z,29.00
2018-05-08T08:59:06.258Z,29.40
2018-05-08T09:00:08.366Z,29.00
2018-05-08T09:01:05.518Z,29.10
2018-05-08T09:02:11.423Z,29.30
2018-05-08T09:03:11.076Z,29.90
2018-05-08T09:04:10.708Z,29.80
2018-05-08T09:05:08.796Z,29.10
2018-05-08T09:06:11.375Z,29.10
2018-05-08T09:07:09.396Z,28.90
2018-05-08T09:08:06.588Z,28.90
2018-05-08T09:09:06.551Z,29.20
2018-05-08T09:10:06.490Z,29.30
2018-05-08T09:11:06.545Z,29.20
2018-05-08T09:12:08.554Z,29.40
2018-05-08T09:13:08.809Z,29.60
2018-05-08T09:14:05.762Z,29.60
2018-05-08T09:15:11.350Z,29.20
2018-05-08T09:16:08.384Z,29.40
2018-05-08T09:17:13.446Z,29.40
2018-05-08T09:18:11.008Z,29.20
2018-05-08T09:19:10.816Z,29.00
2018-05-08T09:20:06.615Z,29.00
2018-05-08T09:21:06.398Z,29.20
2018-05-08T09:22:08.749Z,28.60
2018-05-08T09:23:11.257Z,28.10
2018-05-08T09:24:09.090Z,29.00
2018-05-08T09:25:05.773Z,29.00
2018-05-08T09:26:10.871Z,28.60
2018-05-08T09:27:08.670Z,28.30
2018-05-08T09:28:06.269Z,28.30
2018-05-08T09:29:06.624Z,28.30
2018-05-08T09:30:16.432Z,28.50
2018-05-08T09:31:06.432Z,28.20
2018-05-08T09:32:06.517Z,28.30
2018-05-08T09:33:06.435Z,28.60
2018-05-08T09:34:06.860Z,28.30
2018-05-08T09:35:08.543Z,28.40
2018-05-08T09:36:11.056Z,28.40
2018-05-08T09:37:15.839Z,28.40
2018-05-08T09:38:08.954Z,28.50
2018-05-08T09:39:08.106Z,28.20
2018-05-08T09:40:05.655Z,28.20
2018-05-08T09:41:13.496Z,28.80
2018-05-08T09:42:06.559Z,28.70
2018-05-08T09:43:07.054Z,28.10
2018-05-08T09:44:08.581Z,28.30
2018-05-08T09:45:08.677Z,27.80
2018-05-08T09:46:08.702Z,28.00
2018-05-08T09:47:13.866Z,28.30
2018-05-08T09:48:06.869Z,28.30
2018-05-08T09:49:06.694Z,28.50
2018-05-08T09:50:06.606Z,28.40
2018-05-08T09:51:08.883Z,27.40
2018-05-08T09:52:06.653Z,27.50
2018-05-08T09:53:06.148Z,27.50
2018-05-08T09:54:08.405Z,28.00
2018-05-08T09:55:06.172Z,28.10
2018-05-08T09:56:06.134Z,27.10
2018-05-08T09:57:05.528Z,27.00
2018-05-08T09:58:16.139Z,27.40
2018-05-08T09:59:05.779Z,27.60
2018-05-08T10:00:13.891Z,26.70
2018-05-08T10:01:06.760Z,26.70
2018-05-08T10:02:08.487Z,26.30
2018-05-08T10:03:08.506Z,25.70
2018-05-08T10:04:11.186Z,25.60
2018-05-08T10:05:06.315Z,25.30
2018-05-08T10:06:08.528Z,26.00
2018-05-08T10:07:06.253Z,26.00
2018-05-08T10:08:11.179Z,26.50
2018-05-08T10:09:09.098Z,26.70
2018-05-08T10:10:10.781Z,26.70
2018-05-08T10:11:06.364Z,26.70
2018-05-08T10:12:06.217Z,26.70
2018-05-08T10:13:15.597Z,26.90
2018-05-08T10:14:11.125Z,26.80
2018-05-08T10:15:10.916Z,26.70
2018-05-08T10:16:05.571Z,26.80
2018-05-08T10:17:11.001Z,26.60
2018-05-08T10:18:05.976Z,26.60
2018-05-08T10:19:10.788Z,27.00
2018-05-08T10:20:08.781Z,26.10
2018-05-08T10:21:11.002Z,26.10
2018-05-08T10:22:10.540Z,26.20
2018-05-08T10:23:11.188Z,26.10
2018-05-08T10:24:06.358Z,25.90
2018-05-08T10:25:13.595Z,25.40
2018-05-08T10:26:06.656Z,25.30
2018-05-08T10:27:06.454Z,25.60
2018-05-08T10:28:10.611Z,26.60
2018-05-08T10:29:06.187Z,26.60
2018-05-08T10:30:06.145Z,26.80
2018-05-08T10:31:10.676Z,26.20
2018-05-08T10:32:11.396Z,26.70
2018-05-08T10:33:13.657Z,26.70
2018-05-08T10:34:11.290Z,26.50
2018-05-08T10:35:06.241Z,26.60
2018-05-08T10:36:10.811Z,26.70
2018-05-08T10:37:09.291Z,27.10
2018-05-08T10:38:05.970Z,27.20
2018-05-08T10:39:10.868Z,26.70
2018-05-08T10:40:06.089Z,26.70
2018-05-08T10:41:06.247Z,26.70
2018-05-08T10:42:06.483Z,26.40
2018-05-08T10:43:06.362Z,26.70
2018-05-08T10:44:05.736Z,26.70
2018-05-08T10:45:06.636Z,26.80
2018-05-08T10:46:06.481Z,26.60
2018-05-08T10:47:06.030Z,25.80
2018-05-08T10:48:05.856Z,25.80
2018-05-08T10:49:05.854Z,25.90
2018-05-08T10:50:05.980Z,25.80
2018-05-08T10:51:08.204Z,26.40
2018-05-08T10:52:10.856Z,26.40
2018-05-08T10:53:06.258Z,26.50
2018-05-08T10:54:08.106Z,26.60
2018-05-08T10:55:06.216Z,26.50
2018-05-08T10:56:06.647Z,26.50
2018-05-08T10:57:06.601Z,26.40
2018-05-08T10:58:07.211Z,26.30
2018-05-08T10:59:09.093Z,26.50
2018-05-08T11:00:08.359Z,26.80
2018-05-08T11:01:06.447Z,26.80
2018-05-08T11:02:05.886Z,27.20
2018-05-08T11:03:06.752Z,27.00
2018-05-08T11:04:11.592Z,27.00
2018-05-08T11:05:09.773Z,27.00
2018-05-08T11:06:08.906Z,27.30
2018-05-08T11:07:06.618Z,27.40
2018-05-08T11:08:11.422Z,27.00
2018-05-08T11:09:06.304Z,27.00
2018-05-08T11:10:08.525Z,27.10
2018-05-08T11:11:06.257Z,27.20
2018-05-08T11:12:06.142Z,27.30
2018-05-08T11:13:08.332Z,27.00
2018-05-08T11:14:08.826Z,26.90
2018-05-08T11:15:06.680Z,26.90
2018-05-08T11:16:06.252Z,27.40
2018-05-08T11:17:06.418Z,26.00
2018-05-08T11:18:06.407Z,25.60
2018-05-08T11:19:06.391Z,25.90
2018-05-08T11:20:11.518Z,25.80
2018-05-08T11:21:06.940Z,25.80
2018-05-08T11:22:17.090Z,26.00
2018-05-08T11:23:06.783Z,26.00
2018-05-08T11:24:05.816Z,25.70
2018-05-08T11:25:07.225Z,26.00
2018-05-08T11:26:06.015Z,25.90
2018-05-08T11:27:05.840Z,26.30
2018-05-08T11:28:06.042Z,25.80
2018-05-08T11:29:06.709Z,25.60
2018-05-08T11:30:14.999Z,26.30
2018-05-08T11:31:06.268Z,26.40
2018-05-08T11:32:08.052Z,26.00
2018-05-08T11:33:05.941Z,26.00
2018-05-08T11:34:06.658Z,26.30
2018-05-08T11:35:09.199Z,26.20
2018-05-08T11:36:06.092Z,26.20
2018-05-08T11:37:06.423Z,26.50
2018-05-08T11:38:10.741Z,26.20
2018-05-08T11:39:06.397Z,26.10
2018-05-08T11:40:06.058Z,25.40
2018-05-08T11:41:05.835Z,25.30
2018-05-08T11:42:09.076Z,25.40
2018-05-08T11:43:05.639Z,25.40
2018-05-08T11:44:06.033Z,26.00
2018-05-08T11:45:08.889Z,25.90
2018-05-08T11:46:06.651Z,26.00
2018-05-08T11:47:12.514Z,25.50
2018-05-08T11:48:08.687Z,26.10
2018-05-08T11:49:11.260Z,25.70
2018-05-08T11:50:06.001Z,25.60
2018-05-08T11:51:06.111Z,24.80
2018-05-08T11:52:05.966Z,24.80
2018-05-08T11:53:08.908Z,24.50
2018-05-08T11:54:06.811Z,24.50
2018-05-08T11:55:09.205Z,23.80
2018-05-08T11:56:10.922Z,23.70
2018-05-08T11:57:06.322Z,23.40
2018-05-08T11:58:11.002Z,23.60
2018-05-08T11:59:05.675Z,23.60
2018-05-08T12:00:05.941Z,23.40
2018-05-08T12:01:05.872Z,23.30
2018-05-08T12:02:10.523Z,23.80
2018-05-08T12:03:10.863Z,24.10
2018-05-08T12:04:11.190Z,24.10
2018-05-08T12:05:18.507Z,23.70
2018-05-08T12:06:06.829Z,23.70
2018-05-08T12:07:06.539Z,24.10
2018-05-08T12:08:06.691Z,24.40
2018-05-08T12:09:09.176Z,24.30
2018-05-08T12:10:05.951Z,24.30
2018-05-08T12:11:08.251Z,24.30
2018-05-08T12:12:05.837Z,24.30
2018-05-08T12:13:06.225Z,24.10
2018-05-08T12:14:10.617Z,23.50
2018-05-08T12:15:07.689Z,23.50
2018-05-08T12:16:06.559Z,24.00
2018-05-08T12:17:06.567Z,24.10
2018-05-08T12:18:05.687Z,24.10
2018-05-08T12:19:08.784Z,24.10
2018-05-08T12:20:06.939Z,24.00
2018-05-08T12:21:05.704Z,23.70
2018-05-08T12:22:06.408Z,23.40
2018-05-08T12:23:06.492Z,23.30
2018-05-08T12:24:06.507Z,23.80
2018-05-08T12:25:06.351Z,23.70
2018-05-08T12:26:08.925Z,23.60
2018-05-08T12:27:09.061Z,23.60
2018-05-08T12:28:08.525Z,23.10
2018-05-08T12:29:06.166Z,23.10
2018-05-08T12:30:10.836Z,22.70
2018-05-08T12:31:06.849Z,22.70
2018-05-08T12:32:06.972Z,22.80
2018-05-08T12:33:06.478Z,23.40
2018-05-08T12:34:11.368Z,23.90
2018-05-08T12:35:08.469Z,23.60
2018-05-08T12:36:06.418Z,23.60
2018-05-08T12:37:09.084Z,23.20
2018-05-08T12:38:11.158Z,23.20
2018-05-08T12:39:11.056Z,23.20
2018-05-08T12:40:05.818Z,23.20
2018-05-08T12:41:06.006Z,22.70
2018-05-08T12:42:05.990Z,22.90
2018-05-08T12:43:06.150Z,23.10
2018-05-08T12:44:08.224Z,22.80
2018-05-08T12:45:08.985Z,22.20
2018-05-08T12:46:05.896Z,22.20
2018-05-08T12:47:10.726Z,23.00
2018-05-08T12:48:11.442Z,22.90
2018-05-08T12:49:06.228Z,22.80
2018-05-08T12:50:11.592Z,22.60
2018-05-08T12:51:06.387Z,22.60
2018-05-08T12:52:08.962Z,23.00